Js Chukar — 9HA4214 — position and weather

sailwx.info

Track history (hours):
 
Tides and Currents Weather Stations Pressure Air Temp Water Temp Dewpoint Dewpoint Depression Visibility Wind Speed Wind Dir Waves Ship Positions

Js Chukar

Last reported at 2017-Dec-10 21:44 UTC. Time now 2017-Dec-11 05:45 UTC.
Position N 48°08' W 006°02'.

Length 100 m; draft 5.9 m.

Type: Ship. MMSI: 249362000.

Date/timePositionNaut miles runAvg speedWind from/ knotsBaromVisibWave heightAir tempDewpointWater temp
2017-Dec-10 21:44N 48°08' W 006°02'81 5.1
2017-Dec-10 05:56N 49°16' W 004°54'5810.4
2017-Dec-10 00:18N 49°45' W 003°36'611.6
2017-Dec-09 23:47N 49°48' W 003°28'311.4
2017-Dec-09 23:29N 49°50' W 003°23'511.4
2017-Dec-09 23:01N 49°53' W 003°16'611.3
2017-Dec-09 22:30N 49°55' W 003°09'611.4
2017-Dec-09 22:01N 49°58' W 003°01'612.0
2017-Dec-09 21:30N 50°01' W 002°52'712.8
2017-Dec-09 20:58N 50°03' W 002°42'9814.0
2017-Dec-09 14:02N 50°29' W 000°15'311.3
2017-Dec-09 13:45N 50°30' W 000°11'511.1
2017-Dec-09 13:20N 50°31' W 000°03'410.9
2017-Dec-09 13:00N 50°32' E 000°02'610.9
2017-Dec-09 12:29N 50°33' E 000°10'511.1
2017-Dec-09 12:00N 50°35' E 000°18'611.6
2017-Dec-09 11:30N 50°37' E 000°27'612.1
2017-Dec-09 11:00N 50°38' E 000°36'612.9
2017-Dec-09 10:30N 50°42' E 000°45'713.5
2017-Dec-09 10:00N 50°46' E 000°53'713.8
2017-Dec-09 09:30N 50°51' E 001°01'713.8
2017-Dec-09 09:01N 50°55' E 001°09'713.4
2017-Dec-09 08:30N 50°60' E 001°18'612.3
2017-Dec-09 08:00N 51°06' E 001°20'3 6.4
2017-Dec-09 07:30N 51°06' E 001°25'511.0
2017-Dec-09 07:00N 51°08' E 001°34'511.0
2017-Dec-09 06:31N 51°12' E 001°40'510.2
2017-Dec-09 06:00N 51°15' E 001°46'510.5
2017-Dec-09 05:30N 51°20' E 001°50'510.5
2017-Dec-09 05:00N 51°24' E 001°55'5 9.3
2017-Dec-09 04:30N 51°25' E 002°02'510.4
2017-Dec-09 04:01N 51°23' E 002°10'5 9.9
2017-Dec-09 03:31N 51°21' E 002°17'5 9.6
2017-Dec-09 03:00N 51°21' E 002°25'5 9.9
2017-Dec-09 02:30N 51°23' E 002°32'510.3
2017-Dec-09 02:00N 51°22' E 002°41'510.2
2017-Dec-09 01:30N 51°22' E 002°49'611.0
2017-Dec-09 01:00N 51°23' E 002°57'510.2
2017-Dec-09 00:30N 51°24' E 003°05'510.5
2017-Dec-09 00:00N 51°25' E 003°14'511.0
2017-Dec-08 23:30N 51°25' E 003°23'612.2
2017-Dec-08 23:00N 51°26' E 003°32'611.6
2017-Dec-08 22:30N 51°28' E 003°41'1 2.2
2017-Dec-08 21:56N 51°28' E 003°43'0 0.0
2017-Dec-08 21:20N 51°28' E 003°43'0 0.0
2017-Dec-08 20:53N 51°28' E 003°43'0 0.0
2017-Dec-08 20:29N 51°28' E 003°43'0 0.0
2017-Dec-08 20:00N 51°28' E 003°43'0 0.0
2017-Dec-08 01:41N 51°28' E 003°43'0 0.0
2017-Dec-08 01:29N 51°28' E 003°43'0 0.0
2017-Dec-08 00:59N 51°28' E 003°43'0 0.0
2017-Dec-08 00:29N 51°28' E 003°43'0 0.1
2017-Dec-08 00:00N 51°28' E 003°43'1 2.5
2017-Dec-07 23:30N 51°27' E 003°41'2 5.0
2017-Dec-07 23:00N 51°26' E 003°38'3 5.0
2017-Dec-07 22:30N 51°25' E 003°34'3 5.9
2017-Dec-07 22:00N 51°25' E 003°29'4 8.6
2017-Dec-07 21:30N 51°24' E 003°23'5 9.5
2017-Dec-07 21:00N 51°24' E 003°15'611.4
2017-Dec-07 20:30N 51°24' E 003°06'612.4
2017-Dec-07 20:00N 51°25' E 002°56'712.1
2017-Dec-07 19:26N 51°24' E 002°45'3 4.9
2017-Dec-07 18:46N 51°23' E 002°40'2 6.8
2017-Dec-07 18:30N 51°24' E 002°39'0 0.3
2017-Dec-07 17:05N 51°25' E 002°38'0 0.0
2017-Dec-07 16:53N 51°25' E 002°38'0 0.0
2017-Dec-07 15:44N 51°25' E 002°38'0 0.0
2017-Dec-07 14:41N 51°25' E 002°38'0 0.0
2017-Dec-07 14:29N 51°25' E 002°38'0 0.0
2017-Dec-07 13:31N 51°25' E 002°38'0 0.0
2017-Dec-07 12:01N 51°25' E 002°38'0 0.1
2017-Dec-07 11:58N 51°25' E 002°38'0 0.0
2017-Dec-07 11:25N 51°25' E 002°38'0 0.0
2017-Dec-07 10:49N 51°25' E 002°38'0 0.0
2017-Dec-07 10:16N 51°25' E 002°38'0 0.0
2017-Dec-07 09:46N 51°25' E 002°38'0 0.3
2017-Dec-07 09:22N 51°24' E 002°38'3 6.5
2017-Dec-07 08:58N 51°23' E 002°35'510.1
2017-Dec-07 08:30N 51°22' E 002°27'611.1
2017-Dec-07 08:00N 51°19' E 002°19'611.5
2017-Dec-07 07:30N 51°16' E 002°11'612.5
2017-Dec-07 07:00N 51°13' E 002°03'714.3
2017-Dec-07 06:30N 51°10' E 001°53'714.9
2017-Dec-07 06:00N 51°05' E 001°44'815.5
2017-Dec-07 05:30N 50°59' E 001°35'815.7
2017-Dec-07 05:00N 50°53' E 001°28'815.5
2017-Dec-07 04:29N 50°45' E 001°24'2013.9
2017-Dec-07 03:02N 50°31' E 001°01'1013.6
2017-Dec-07 02:16N 50°27' E 000°45'1413.9
2017-Dec-07 01:14N 50°22' E 000°25'414.1
2017-Dec-07 00:58N 50°21' E 000°19'714.4
2017-Dec-07 00:30N 50°18' E 000°09'713.5
2017-Dec-07 00:00N 50°14' E 000°01'714.5
2017-Dec-06 23:30N 50°07' W 000°01'714.8
2017-Dec-06 23:01N 49°60' W 000°03'714.8
2017-Dec-06 22:30N 49°52' W 000°06'714.6
2017-Dec-06 22:01N 49°45' W 000°08'713.1
2017-Dec-06 21:30N 49°39' W 000°05'713.1
2017-Dec-06 21:00N 49°33' W 000°01'  
2017-Dec-04 10:29N 49°30' W 000°03'0 0.1
2017-Dec-04 09:58N 49°30' W 000°03'0 0.1
2017-Dec-04 09:30N 49°30' W 000°03'0 0.0
2017-Dec-04 09:00N 49°30' W 000°03'0 0.0
2017-Dec-04 08:29N 49°30' W 000°03'0 0.1
2017-Dec-04 07:58N 49°30' W 000°03'0 0.1
2017-Dec-04 07:30N 49°30' W 000°03'0 0.0
2017-Dec-04 07:00N 49°30' W 000°03'0 0.0
2017-Dec-04 06:29N 49°30' W 000°03'0 0.1
2017-Dec-04 05:59N 49°30' W 000°03'0 0.1
2017-Dec-04 05:29N 49°30' W 000°03'0 0.0
2017-Dec-04 05:01N 49°30' W 000°03'0 0.0
2017-Dec-04 04:28N 49°30' W 000°03'0 0.0
2017-Dec-04 03:57N 49°30' W 000°03'0 0.0
2017-Dec-04 03:30N 49°30' W 000°03'0 0.0
2017-Dec-04 02:58N 49°30' W 000°03'0 0.0
2017-Dec-04 02:30N 49°30' W 000°03'0 0.0
2017-Dec-04 02:00N 49°30' W 000°03'0 0.0
2017-Dec-04 01:28N 49°30' W 000°03'0 0.1
2017-Dec-04 01:00N 49°30' W 000°03'0 0.1
2017-Dec-04 00:29N 49°30' W 000°03'0 0.1
2017-Dec-03 23:59N 49°30' W 000°03'0 0.0
2017-Dec-03 23:28N 49°30' W 000°03'0 0.0
2017-Dec-03 22:58N 49°30' W 000°03'0 0.1
2017-Dec-03 22:27N 49°30' W 000°03'0 0.1
2017-Dec-03 21:59N 49°30' W 000°03'0 0.0
2017-Dec-03 21:29N 49°30' W 000°03'0 0.0
2017-Dec-03 20:59N 49°30' W 000°03'0 0.0
2017-Dec-03 20:27N 49°30' W 000°03'0 0.1
2017-Dec-03 19:59N 49°30' W 000°03'0 0.0
2017-Dec-03 19:28N 49°30' W 000°03'0 0.1
2017-Dec-03 19:00N 49°30' W 000°03'0 0.1
2017-Dec-03 18:28N 49°30' W 000°03'0 0.0
2017-Dec-03 18:00N 49°29' W 000°03'0 0.1
2017-Dec-03 17:30N 49°30' W 000°03'0 0.1
2017-Dec-03 17:00N 49°30' W 000°03'0 0.0
2017-Dec-03 16:28N 49°30' W 000°03'0 0.0
2017-Dec-03 15:58N 49°30' W 000°03'0 0.0
2017-Dec-03 15:30N 49°30' W 000°03'0 0.0
2017-Dec-03 14:59N 49°30' W 000°03'0 0.0
2017-Dec-03 14:28N 49°30' W 000°03'0 0.0
2017-Dec-03 13:58N 49°30' W 000°03'0 0.0
2017-Dec-03 13:30N 49°30' W 000°03'0 0.0
2017-Dec-03 12:59N 49°30' W 000°03'0 0.1
2017-Dec-03 12:29N 49°30' W 000°03'0 0.1
2017-Dec-03 11:58N 49°29' W 000°03'0 0.1
2017-Dec-03 11:28N 49°29' W 000°03'0 0.0
2017-Dec-03 11:00N 49°30' W 000°03'0 0.0
2017-Dec-03 10:29N 49°30' W 000°03'0 0.0
2017-Dec-03 09:58N 49°30' W 000°03'0 0.1
2017-Dec-03 09:29N 49°30' W 000°03'0 0.1
2017-Dec-03 09:00N 49°30' W 000°03'0 0.0
2017-Dec-03 08:29N 49°30' W 000°03'0 0.0
2017-Dec-03 07:58N 49°30' W 000°03'0 0.0
2017-Dec-03 07:28N 49°30' W 000°03'0 0.1
2017-Dec-03 06:59N 49°30' W 000°03'0 0.1
2017-Dec-03 06:29N 49°30' W 000°03'0 0.1
2017-Dec-03 05:59N 49°30' W 000°03'0 0.0
2017-Dec-03 05:29N 49°29' W 000°03'0 0.0
2017-Dec-03 04:59N 49°30' W 000°03'0 0.1
2017-Dec-03 04:28N 49°30' W 000°03'0 0.2
2017-Dec-03 03:58N 49°30' W 000°03'0 0.1
2017-Dec-03 03:28N 49°30' W 000°03'0 0.0
2017-Dec-03 02:58N 49°30' W 000°03'0 0.0
2017-Dec-03 02:27N 49°30' W 000°03'0 0.0
2017-Dec-03 02:00N 49°30' W 000°03'0 0.0
2017-Dec-03 01:30N 49°30' W 000°03'0 0.1
2017-Dec-03 01:00N 49°30' W 000°03'0 0.1
2017-Dec-03 00:30N 49°30' W 000°03'0 0.1
2017-Dec-03 00:00N 49°30' W 000°03'0 0.1
2017-Dec-02 23:28N 49°30' W 000°03'0 0.0
2017-Dec-02 23:00N 49°30' W 000°03'0 0.0
2017-Dec-02 22:29N 49°30' W 000°03'0 0.0
2017-Dec-02 22:00N 49°30' W 000°03'0 0.0
2017-Dec-02 21:30N 49°30' W 000°03'0 0.0
2017-Dec-02 21:00N 49°30' W 000°03'0 0.0
2017-Dec-02 20:29N 49°30' W 000°03'0 0.0
2017-Dec-02 19:58N 49°30' W 000°03'0 0.0
2017-Dec-02 19:31N 49°30' W 000°03'0 0.0
2017-Dec-02 18:59N 49°30' W 000°03'0 0.1
2017-Dec-02 18:29N 49°30' W 000°03'0 0.1
2017-Dec-02 18:00N 49°30' W 000°03'0 0.1
2017-Dec-02 17:29N 49°30' W 000°03'0 0.0
2017-Dec-02 16:59N 49°30' W 000°03'0 0.1
2017-Dec-02 16:30N 49°30' W 000°03'0 0.1
2017-Dec-02 16:00N 49°30' W 000°03'0 0.0
2017-Dec-02 15:30N 49°30' W 000°03'0 0.0
2017-Dec-02 15:00N 49°30' W 000°03'0 0.0
2017-Dec-02 14:30N 49°30' W 000°03'0 0.0
2017-Dec-02 14:00N 49°30' W 000°03'0 0.0
2017-Dec-02 13:29N 49°30' W 000°03'0 0.0
2017-Dec-02 12:59N 49°30' W 000°03'0 0.0
2017-Dec-02 12:29N 49°30' W 000°03'0 0.0
2017-Dec-02 11:58N 49°30' W 000°03'0 0.0
2017-Dec-02 11:28N 49°30' W 000°03'0 0.1
2017-Dec-02 11:00N 49°30' W 000°03'0 0.1
2017-Dec-02 10:30N 49°30' W 000°03'0 0.0
2017-Dec-02 09:59N 49°30' W 000°03'0 0.0
2017-Dec-02 09:28N 49°30' W 000°03'0 0.1
2017-Dec-02 08:58N 49°30' W 000°03'0 0.0
2017-Dec-02 08:30N 49°30' W 000°03'0 0.0
2017-Dec-02 07:59N 49°30' W 000°03'0 0.1
2017-Dec-02 07:28N 49°30' W 000°03'0 0.1
2017-Dec-02 06:58N 49°30' W 000°03'0 0.1
2017-Dec-02 06:28N 49°30' W 000°03'0 0.1
2017-Dec-02 05:58N 49°30' W 000°03'0 0.1
2017-Dec-02 05:30N 49°30' W 000°03'0 0.1
2017-Dec-02 05:00N 49°29' W 000°03'0 0.1
2017-Dec-02 04:30N 49°29' W 000°03'0 0.1
2017-Dec-02 04:00N 49°29' W 000°03'0 0.0
2017-Dec-02 03:30N 49°29' W 000°03'0 0.0
2017-Dec-02 03:00N 49°29' W 000°03'0 0.0
2017-Dec-02 02:30N 49°29' W 000°03'0 0.0
2017-Dec-02 02:00N 49°30' W 000°03'0 0.0
2017-Dec-02 01:30N 49°30' W 000°03'0 0.0
2017-Dec-02 01:00N 49°30' W 000°03'0 0.1
2017-Dec-02 00:30N 49°30' W 000°03'0 0.1
2017-Dec-01 23:59N 49°29' W 000°03'0 0.0
2017-Dec-01 23:30N 49°29' W 000°03'0 0.0
2017-Dec-01 23:00N 49°29' W 000°03'0 0.0
2017-Dec-01 22:29N 49°29' W 000°03'0 0.1
2017-Dec-01 21:59N 49°29' W 000°03'0 0.0
2017-Dec-01 21:29N 49°29' W 000°03'0 0.0
2017-Dec-01 20:58N 49°29' W 000°03'0 0.0
2017-Dec-01 20:28N 49°29' W 000°03'0 0.3
2017-Dec-01 20:00N 49°30' W 000°03'0 0.1
2017-Dec-01 19:29N 49°30' W 000°03'0 0.1
2017-Dec-01 18:59N 49°30' W 000°03'0 0.1
2017-Dec-01 18:28N 49°30' W 000°03'0 0.1
2017-Dec-01 17:58N 49°29' W 000°03'0 0.0
2017-Dec-01 17:28N 49°29' W 000°03'0 0.1
2017-Dec-01 17:00N 49°29' W 000°03'0 0.0
2017-Dec-01 16:30N 49°29' W 000°03'0 0.0
2017-Dec-01 15:59N 49°29' W 000°03'0 0.0
2017-Dec-01 15:30N 49°29' W 000°03'0 0.0
2017-Dec-01 14:58N 49°29' W 000°03'0 0.1
2017-Dec-01 14:28N 49°29' W 000°03'0 0.0
2017-Dec-01 13:58N 49°29' W 000°03'0 0.0
2017-Dec-01 13:30N 49°29' W 000°03'0 0.0
2017-Dec-01 12:59N 49°29' W 000°03'0 0.0
2017-Dec-01 12:29N 49°29' W 000°03'0 0.0
2017-Dec-01 11:59N 49°30' W 000°03'0 0.1
2017-Dec-01 11:29N 49°29' W 000°03'0 0.1
2017-Dec-01 10:59N 49°30' W 000°03'0 0.0
2017-Dec-01 10:30N 49°30' W 000°03'0 0.2
2017-Dec-01 10:00N 49°30' W 000°03'0 0.8
2017-Dec-01 09:29N 49°29' W 000°03'0 0.1
2017-Dec-01 09:01N 49°29' W 000°03'0 0.1
2017-Dec-01 08:28N 49°29' W 000°03'0 0.0
2017-Dec-01 07:58N 49°29' W 000°03'0 0.0
2017-Dec-01 07:30N 49°29' W 000°03'0 0.1
2017-Dec-01 07:00N 49°29' W 000°03'0 0.0
2017-Dec-01 06:30N 49°29' W 000°03'0 0.0
2017-Dec-01 06:00N 49°29' W 000°03'0 0.0
2017-Dec-01 05:30N 49°29' W 000°03'0 0.0
2017-Dec-01 05:00N 49°29' W 000°03'0 0.0
2017-Dec-01 04:30N 49°29' W 000°03'0 0.0
2017-Dec-01 04:00N 49°29' W 000°03'0 0.1
2017-Dec-01 03:30N 49°29' W 000°03'0 0.0
2017-Dec-01 02:58N 49°29' W 000°03'0 0.0
2017-Dec-01 02:28N 49°29' W 000°03'0 0.0
2017-Dec-01 02:00N 49°29' W 000°03'0 0.0
2017-Dec-01 01:29N 49°29' W 000°03'0 0.0
2017-Dec-01 00:56N 49°29' W 000°03'0 0.0
2017-Dec-01 00:29N 49°29' W 000°03'0 0.0
2017-Nov-30 23:58N 49°29' W 000°03'0 0.0
2017-Nov-30 23:28N 49°29' W 000°03'0 0.0
2017-Nov-30 23:00N 49°29' W 000°03'0 0.0
2017-Nov-30 22:30N 49°29' W 000°03'0 0.0
2017-Nov-30 21:59N 49°29' W 000°03'  
Track history (hours):
 
Tides and Currents Weather Stations Pressure Air Temp Water Temp Dewpoint Dewpoint Depression Visibility Wind Speed Wind Dir Waves Ship Positions

Js Chukar

Last reported at 2017-Dec-10 21:44 UTC. Time now 2017-Dec-11 05:45 UTC.
Position N 48°08' W 006°02'.

Length 100 m; draft 5.9 m.

Type: Ship. MMSI: 249362000.

Date/timePositionNaut miles runAvg speedWind from/ knotsBaromVisibWave heightAir tempDewpointWater temp
2017-Dec-10 21:44N 48°08' W 006°02'81 5.1
2017-Dec-10 05:56N 49°16' W 004°54'5810.4
2017-Dec-10 00:18N 49°45' W 003°36'611.6
2017-Dec-09 23:47N 49°48' W 003°28'311.4
2017-Dec-09 23:29N 49°50' W 003°23'511.4
2017-Dec-09 23:01N 49°53' W 003°16'611.3
2017-Dec-09 22:30N 49°55' W 003°09'611.4
2017-Dec-09 22:01N 49°58' W 003°01'612.0
2017-Dec-09 21:30N 50°01' W 002°52'712.8
2017-Dec-09 20:58N 50°03' W 002°42'9814.0
2017-Dec-09 14:02N 50°29' W 000°15'311.3
2017-Dec-09 13:45N 50°30' W 000°11'511.1
2017-Dec-09 13:20N 50°31' W 000°03'410.9
2017-Dec-09 13:00N 50°32' E 000°02'610.9
2017-Dec-09 12:29N 50°33' E 000°10'511.1
2017-Dec-09 12:00N 50°35' E 000°18'611.6
2017-Dec-09 11:30N 50°37' E 000°27'612.1
2017-Dec-09 11:00N 50°38' E 000°36'612.9
2017-Dec-09 10:30N 50°42' E 000°45'713.5
2017-Dec-09 10:00N 50°46' E 000°53'713.8
2017-Dec-09 09:30N 50°51' E 001°01'713.8
2017-Dec-09 09:01N 50°55' E 001°09'713.4
2017-Dec-09 08:30N 50°60' E 001°18'612.3
2017-Dec-09 08:00N 51°06' E 001°20'3 6.4
2017-Dec-09 07:30N 51°06' E 001°25'511.0
2017-Dec-09 07:00N 51°08' E 001°34'511.0
2017-Dec-09 06:31N 51°12' E 001°40'510.2
2017-Dec-09 06:00N 51°15' E 001°46'510.5
2017-Dec-09 05:30N 51°20' E 001°50'510.5
2017-Dec-09 05:00N 51°24' E 001°55'5 9.3
2017-Dec-09 04:30N 51°25' E 002°02'510.4
2017-Dec-09 04:01N 51°23' E 002°10'5 9.9
2017-Dec-09 03:31N 51°21' E 002°17'5 9.6
2017-Dec-09 03:00N 51°21' E 002°25'5 9.9
2017-Dec-09 02:30N 51°23' E 002°32'510.3
2017-Dec-09 02:00N 51°22' E 002°41'510.2
2017-Dec-09 01:30N 51°22' E 002°49'611.0
2017-Dec-09 01:00N 51°23' E 002°57'510.2
2017-Dec-09 00:30N 51°24' E 003°05'510.5
2017-Dec-09 00:00N 51°25' E 003°14'511.0
2017-Dec-08 23:30N 51°25' E 003°23'612.2
2017-Dec-08 23:00N 51°26' E 003°32'611.6
2017-Dec-08 22:30N 51°28' E 003°41'1 2.2
2017-Dec-08 21:56N 51°28' E 003°43'0 0.0
2017-Dec-08 21:20N 51°28' E 003°43'0 0.0
2017-Dec-08 20:53N 51°28' E 003°43'0 0.0
2017-Dec-08 20:29N 51°28' E 003°43'0 0.0
2017-Dec-08 20:00N 51°28' E 003°43'0 0.0
2017-Dec-08 01:41N 51°28' E 003°43'0 0.0
2017-Dec-08 01:29N 51°28' E 003°43'0 0.0
2017-Dec-08 00:59N 51°28' E 003°43'0 0.0
2017-Dec-08 00:29N 51°28' E 003°43'0 0.1
2017-Dec-08 00:00N 51°28' E 003°43'1 2.5
2017-Dec-07 23:30N 51°27' E 003°41'2 5.0
2017-Dec-07 23:00N 51°26' E 003°38'3 5.0
2017-Dec-07 22:30N 51°25' E 003°34'3 5.9
2017-Dec-07 22:00N 51°25' E 003°29'4 8.6
2017-Dec-07 21:30N 51°24' E 003°23'5 9.5
2017-Dec-07 21:00N 51°24' E 003°15'611.4
2017-Dec-07 20:30N 51°24' E 003°06'612.4
2017-Dec-07 20:00N 51°25' E 002°56'712.1
2017-Dec-07 19:26N 51°24' E 002°45'3 4.9
2017-Dec-07 18:46N 51°23' E 002°40'2 6.8
2017-Dec-07 18:30N 51°24' E 002°39'0 0.3
2017-Dec-07 17:05N 51°25' E 002°38'0 0.0
2017-Dec-07 16:53N 51°25' E 002°38'0 0.0
2017-Dec-07 15:44N 51°25' E 002°38'0 0.0
2017-Dec-07 14:41N 51°25' E 002°38'0 0.0
2017-Dec-07 14:29N 51°25' E 002°38'0 0.0
2017-Dec-07 13:31N 51°25' E 002°38'0 0.0
2017-Dec-07 12:01N 51°25' E 002°38'0 0.1
2017-Dec-07 11:58N 51°25' E 002°38'0 0.0
2017-Dec-07 11:25N 51°25' E 002°38'0 0.0
2017-Dec-07 10:49N 51°25' E 002°38'0 0.0
2017-Dec-07 10:16N 51°25' E 002°38'0 0.0
2017-Dec-07 09:46N 51°25' E 002°38'0 0.3
2017-Dec-07 09:22N 51°24' E 002°38'3 6.5
2017-Dec-07 08:58N 51°23' E 002°35'510.1
2017-Dec-07 08:30N 51°22' E 002°27'611.1
2017-Dec-07 08:00N 51°19' E 002°19'611.5
2017-Dec-07 07:30N 51°16' E 002°11'612.5
2017-Dec-07 07:00N 51°13' E 002°03'714.3
2017-Dec-07 06:30N 51°10' E 001°53'714.9
2017-Dec-07 06:00N 51°05' E 001°44'815.5
2017-Dec-07 05:30N 50°59' E 001°35'815.7
2017-Dec-07 05:00N 50°53' E 001°28'815.5
2017-Dec-07 04:29N 50°45' E 001°24'2013.9
2017-Dec-07 03:02N 50°31' E 001°01'1013.6
2017-Dec-07 02:16N 50°27' E 000°45'1413.9
2017-Dec-07 01:14N 50°22' E 000°25'414.1
2017-Dec-07 00:58N 50°21' E 000°19'714.4
2017-Dec-07 00:30N 50°18' E 000°09'713.5
2017-Dec-07 00:00N 50°14' E 000°01'714.5
2017-Dec-06 23:30N 50°07' W 000°01'714.8
2017-Dec-06 23:01N 49°60' W 000°03'714.8
2017-Dec-06 22:30N 49°52' W 000°06'714.6
2017-Dec-06 22:01N 49°45' W 000°08'713.1
2017-Dec-06 21:30N 49°39' W 000°05'713.1
2017-Dec-06 21:00N 49°33' W 000°01'  
2017-Dec-04 10:29N 49°30' W 000°03'0 0.1
2017-Dec-04 09:58N 49°30' W 000°03'0 0.1
2017-Dec-04 09:30N 49°30' W 000°03'0 0.0
2017-Dec-04 09:00N 49°30' W 000°03'0 0.0
2017-Dec-04 08:29N 49°30' W 000°03'0 0.1
2017-Dec-04 07:58N 49°30' W 000°03'0 0.1
2017-Dec-04 07:30N 49°30' W 000°03'0 0.0
2017-Dec-04 07:00N 49°30' W 000°03'0 0.0
2017-Dec-04 06:29N 49°30' W 000°03'0 0.1
2017-Dec-04 05:59N 49°30' W 000°03'0 0.1
2017-Dec-04 05:29N 49°30' W 000°03'0 0.0
2017-Dec-04 05:01N 49°30' W 000°03'0 0.0
2017-Dec-04 04:28N 49°30' W 000°03'0 0.0
2017-Dec-04 03:57N 49°30' W 000°03'0 0.0
2017-Dec-04 03:30N 49°30' W 000°03'0 0.0
2017-Dec-04 02:58N 49°30' W 000°03'0 0.0
2017-Dec-04 02:30N 49°30' W 000°03'0 0.0
2017-Dec-04 02:00N 49°30' W 000°03'0 0.0
2017-Dec-04 01:28N 49°30' W 000°03'0 0.1
2017-Dec-04 01:00N 49°30' W 000°03'0 0.1
2017-Dec-04 00:29N 49°30' W 000°03'0 0.1
2017-Dec-03 23:59N 49°30' W 000°03'0 0.0
2017-Dec-03 23:28N 49°30' W 000°03'0 0.0
2017-Dec-03 22:58N 49°30' W 000°03'0 0.1
2017-Dec-03 22:27N 49°30' W 000°03'0 0.1
2017-Dec-03 21:59N 49°30' W 000°03'0 0.0
2017-Dec-03 21:29N 49°30' W 000°03'0 0.0
2017-Dec-03 20:59N 49°30' W 000°03'0 0.0
2017-Dec-03 20:27N 49°30' W 000°03'0 0.1
2017-Dec-03 19:59N 49°30' W 000°03'0 0.0
2017-Dec-03 19:28N 49°30' W 000°03'0 0.1
2017-Dec-03 19:00N 49°30' W 000°03'0 0.1
2017-Dec-03 18:28N 49°30' W 000°03'0 0.0
2017-Dec-03 18:00N 49°29' W 000°03'0 0.1
2017-Dec-03 17:30N 49°30' W 000°03'0 0.1
2017-Dec-03 17:00N 49°30' W 000°03'0 0.0
2017-Dec-03 16:28N 49°30' W 000°03'0 0.0
2017-Dec-03 15:58N 49°30' W 000°03'0 0.0
2017-Dec-03 15:30N 49°30' W 000°03'0 0.0
2017-Dec-03 14:59N 49°30' W 000°03'0 0.0
2017-Dec-03 14:28N 49°30' W 000°03'0 0.0
2017-Dec-03 13:58N 49°30' W 000°03'0 0.0
2017-Dec-03 13:30N 49°30' W 000°03'0 0.0
2017-Dec-03 12:59N 49°30' W 000°03'0 0.1
2017-Dec-03 12:29N 49°30' W 000°03'0 0.1
2017-Dec-03 11:58N 49°29' W 000°03'0 0.1
2017-Dec-03 11:28N 49°29' W 000°03'0 0.0
2017-Dec-03 11:00N 49°30' W 000°03'0 0.0
2017-Dec-03 10:29N 49°30' W 000°03'0 0.0
2017-Dec-03 09:58N 49°30' W 000°03'0 0.1
2017-Dec-03 09:29N 49°30' W 000°03'0 0.1
2017-Dec-03 09:00N 49°30' W 000°03'0 0.0
2017-Dec-03 08:29N 49°30' W 000°03'0 0.0
2017-Dec-03 07:58N 49°30' W 000°03'0 0.0
2017-Dec-03 07:28N 49°30' W 000°03'0 0.1
2017-Dec-03 06:59N 49°30' W 000°03'0 0.1
2017-Dec-03 06:29N 49°30' W 000°03'0 0.1
2017-Dec-03 05:59N 49°30' W 000°03'0 0.0
2017-Dec-03 05:29N 49°29' W 000°03'0 0.0
2017-Dec-03 04:59N 49°30' W 000°03'0 0.1
2017-Dec-03 04:28N 49°30' W 000°03'0 0.2
2017-Dec-03 03:58N 49°30' W 000°03'0 0.1
2017-Dec-03 03:28N 49°30' W 000°03'0 0.0
2017-Dec-03 02:58N 49°30' W 000°03'0 0.0
2017-Dec-03 02:27N 49°30' W 000°03'0 0.0
2017-Dec-03 02:00N 49°30' W 000°03'0 0.0
2017-Dec-03 01:30N 49°30' W 000°03'0 0.1
2017-Dec-03 01:00N 49°30' W 000°03'0 0.1
2017-Dec-03 00:30N 49°30' W 000°03'0 0.1
2017-Dec-03 00:00N 49°30' W 000°03'0 0.1
2017-Dec-02 23:28N 49°30' W 000°03'0 0.0
2017-Dec-02 23:00N 49°30' W 000°03'0 0.0
2017-Dec-02 22:29N 49°30' W 000°03'0 0.0
2017-Dec-02 22:00N 49°30' W 000°03'0 0.0
2017-Dec-02 21:30N 49°30' W 000°03'0 0.0
2017-Dec-02 21:00N 49°30' W 000°03'0 0.0
2017-Dec-02 20:29N 49°30' W 000°03'0 0.0
2017-Dec-02 19:58N 49°30' W 000°03'0 0.0
2017-Dec-02 19:31N 49°30' W 000°03'0 0.0
2017-Dec-02 18:59N 49°30' W 000°03'0 0.1
2017-Dec-02 18:29N 49°30' W 000°03'0 0.1
2017-Dec-02 18:00N 49°30' W 000°03'0 0.1
2017-Dec-02 17:29N 49°30' W 000°03'0 0.0
2017-Dec-02 16:59N 49°30' W 000°03'0 0.1
2017-Dec-02 16:30N 49°30' W 000°03'0 0.1
2017-Dec-02 16:00N 49°30' W 000°03'0 0.0
2017-Dec-02 15:30N 49°30' W 000°03'0 0.0
2017-Dec-02 15:00N 49°30' W 000°03'0 0.0
2017-Dec-02 14:30N 49°30' W 000°03'0 0.0
2017-Dec-02 14:00N 49°30' W 000°03'0 0.0
2017-Dec-02 13:29N 49°30' W 000°03'0 0.0
2017-Dec-02 12:59N 49°30' W 000°03'0 0.0
2017-Dec-02 12:29N 49°30' W 000°03'0 0.0
2017-Dec-02 11:58N 49°30' W 000°03'0 0.0
2017-Dec-02 11:28N 49°30' W 000°03'0 0.1
2017-Dec-02 11:00N 49°30' W 000°03'0 0.1
2017-Dec-02 10:30N 49°30' W 000°03'0 0.0
2017-Dec-02 09:59N 49°30' W 000°03'0 0.0
2017-Dec-02 09:28N 49°30' W 000°03'0 0.1
2017-Dec-02 08:58N 49°30' W 000°03'0 0.0
2017-Dec-02 08:30N 49°30' W 000°03'0 0.0
2017-Dec-02 07:59N 49°30' W 000°03'0 0.1
2017-Dec-02 07:28N 49°30' W 000°03'0 0.1
2017-Dec-02 06:58N 49°30' W 000°03'0 0.1
2017-Dec-02 06:28N 49°30' W 000°03'0 0.1
2017-Dec-02 05:58N 49°30' W 000°03'0 0.1
2017-Dec-02 05:30N 49°30' W 000°03'0 0.1
2017-Dec-02 05:00N 49°29' W 000°03'0 0.1
2017-Dec-02 04:30N 49°29' W 000°03'0 0.1
2017-Dec-02 04:00N 49°29' W 000°03'0 0.0
2017-Dec-02 03:30N 49°29' W 000°03'0 0.0
2017-Dec-02 03:00N 49°29' W 000°03'0 0.0
2017-Dec-02 02:30N 49°29' W 000°03'0 0.0
2017-Dec-02 02:00N 49°30' W 000°03'0 0.0
2017-Dec-02 01:30N 49°30' W 000°03'0 0.0
2017-Dec-02 01:00N 49°30' W 000°03'0 0.1
2017-Dec-02 00:30N 49°30' W 000°03'0 0.1
2017-Dec-01 23:59N 49°29' W 000°03'0 0.0
2017-Dec-01 23:30N 49°29' W 000°03'0 0.0
2017-Dec-01 23:00N 49°29' W 000°03'0 0.0
2017-Dec-01 22:29N 49°29' W 000°03'0 0.1
2017-Dec-01 21:59N 49°29' W 000°03'0 0.0
2017-Dec-01 21:29N 49°29' W 000°03'0 0.0
2017-Dec-01 20:58N 49°29' W 000°03'0 0.0
2017-Dec-01 20:28N 49°29' W 000°03'0 0.3
2017-Dec-01 20:00N 49°30' W 000°03'0 0.1
2017-Dec-01 19:29N 49°30' W 000°03'0 0.1
2017-Dec-01 18:59N 49°30' W 000°03'0 0.1
2017-Dec-01 18:28N 49°30' W 000°03'0 0.1
2017-Dec-01 17:58N 49°29' W 000°03'0 0.0
2017-Dec-01 17:28N 49°29' W 000°03'0 0.1
2017-Dec-01 17:00N 49°29' W 000°03'0 0.0
2017-Dec-01 16:30N 49°29' W 000°03'0 0.0
2017-Dec-01 15:59N 49°29' W 000°03'0 0.0
2017-Dec-01 15:30N 49°29' W 000°03'0 0.0
2017-Dec-01 14:58N 49°29' W 000°03'0 0.1
2017-Dec-01 14:28N 49°29' W 000°03'0 0.0
2017-Dec-01 13:58N 49°29' W 000°03'0 0.0
2017-Dec-01 13:30N 49°29' W 000°03'0 0.0
2017-Dec-01 12:59N 49°29' W 000°03'0 0.0
2017-Dec-01 12:29N 49°29' W 000°03'0 0.0
2017-Dec-01 11:59N 49°30' W 000°03'0 0.1
2017-Dec-01 11:29N 49°29' W 000°03'0 0.1
2017-Dec-01 10:59N 49°30' W 000°03'0 0.0
2017-Dec-01 10:30N 49°30' W 000°03'0 0.2
2017-Dec-01 10:00N 49°30' W 000°03'0 0.8
2017-Dec-01 09:29N 49°29' W 000°03'0 0.1
2017-Dec-01 09:01N 49°29' W 000°03'0 0.1
2017-Dec-01 08:28N 49°29' W 000°03'0 0.0
2017-Dec-01 07:58N 49°29' W 000°03'0 0.0
2017-Dec-01 07:30N 49°29' W 000°03'0 0.1
2017-Dec-01 07:00N 49°29' W 000°03'0 0.0
2017-Dec-01 06:30N 49°29' W 000°03'0 0.0
2017-Dec-01 06:00N 49°29' W 000°03'0 0.0
2017-Dec-01 05:30N 49°29' W 000°03'0 0.0
2017-Dec-01 05:00N 49°29' W 000°03'0 0.0
2017-Dec-01 04:30N 49°29' W 000°03'0 0.0
2017-Dec-01 04:00N 49°29' W 000°03'0 0.1
2017-Dec-01 03:30N 49°29' W 000°03'0 0.0
2017-Dec-01 02:58N 49°29' W 000°03'0 0.0
2017-Dec-01 02:28N 49°29' W 000°03'0 0.0
2017-Dec-01 02:00N 49°29' W 000°03'0 0.0
2017-Dec-01 01:29N 49°29' W 000°03'0 0.0
2017-Dec-01 00:56N 49°29' W 000°03'0 0.0
2017-Dec-01 00:29N 49°29' W 000°03'0 0.0
2017-Nov-30 23:58N 49°29' W 000°03'0 0.0
2017-Nov-30 23:28N 49°29' W 000°03'0 0.0
2017-Nov-30 23:00N 49°29' W 000°03'0 0.0
2017-Nov-30 22:30N 49°29' W 000°03'0 0.0
2017-Nov-30 21:59N 49°29' W 000°03'  

Dump ship's entire track history